sensor_id;sensor_type;location;lat;lon;timestamp;P1;durP1;ratioP1;P2;durP2;ratioP2
55082;SDS011;40978;52.850;6.506;2024-02-21T00:02:11;4.57;;;2.17;;
55082;SDS011;40978;52.850;6.506;2024-02-21T00:04:36;8.43;;;2.00;;
55082;SDS011;40978;52.850;6.506;2024-02-21T00:07:03;8.25;;;1.88;;
55082;SDS011;40978;52.850;6.506;2024-02-21T00:09:29;10.07;;;2.15;;
55082;SDS011;40978;52.850;6.506;2024-02-21T00:11:55;9.10;;;2.15;;
55082;SDS011;40978;52.850;6.506;2024-02-21T00:14:21;5.97;;;1.70;;
55082;SDS011;40978;52.850;6.506;2024-02-21T00:16:47;3.28;;;1.52;;
55082;SDS011;40978;52.850;6.506;2024-02-21T00:19:12;3.65;;;1.63;;
55082;SDS011;40978;52.850;6.506;2024-02-21T00:21:39;10.98;;;2.47;;
55082;SDS011;40978;52.850;6.506;2024-02-21T00:24:05;3.05;;;1.60;;
55082;SDS011;40978;52.850;6.506;2024-02-21T00:26:31;2.90;;;2.45;;
55082;SDS011;40978;52.850;6.506;2024-02-21T00:28:57;4.45;;;1.85;;
55082;SDS011;40978;52.850;6.506;2024-02-21T00:31:23;7.32;;;2.55;;
55082;SDS011;40978;52.850;6.506;2024-02-21T00:33:48;13.48;;;2.53;;
55082;SDS011;40978;52.850;6.506;2024-02-21T00:36:15;5.60;;;1.65;;
55082;SDS011;40978;52.850;6.506;2024-02-21T00:38:41;2.67;;;1.35;;
55082;SDS011;40978;52.850;6.506;2024-02-21T00:41:07;6.43;;;2.72;;
55082;SDS011;40978;52.850;6.506;2024-02-21T00:43:33;5.28;;;2.13;;
55082;SDS011;40978;52.850;6.506;2024-02-21T00:45:58;3.92;;;1.85;;
55082;SDS011;40978;52.850;6.506;2024-02-21T00:48:24;5.50;;;2.40;;
55082;SDS011;40978;52.850;6.506;2024-02-21T00:50:50;3.70;;;1.48;;
55082;SDS011;40978;52.850;6.506;2024-02-21T00:53:15;2.85;;;1.52;;
55082;SDS011;40978;52.850;6.506;2024-02-21T00:55:41;5.70;;;1.88;;
55082;SDS011;40978;52.850;6.506;2024-02-21T00:58:08;2.53;;;1.40;;
55082;SDS011;40978;52.850;6.506;2024-02-21T01:00:34;4.07;;;1.92;;
55082;SDS011;40978;52.850;6.506;2024-02-21T01:02:59;3.47;;;1.20;;
55082;SDS011;40978;52.850;6.506;2024-02-21T01:05:25;2.53;;;1.17;;
55082;SDS011;40978;52.850;6.506;2024-02-21T01:07:52;6.95;;;1.40;;
55082;SDS011;40978;52.850;6.506;2024-02-21T01:10:18;4.35;;;1.33;;
55082;SDS011;40978;52.850;6.506;2024-02-21T01:12:43;4.38;;;1.35;;
55082;SDS011;40978;52.850;6.506;2024-02-21T01:15:09;5.65;;;1.50;;
55082;SDS011;40978;52.850;6.506;2024-02-21T01:17:35;5.10;;;1.08;;
55082;SDS011;40978;52.850;6.506;2024-02-21T01:20:01;2.40;;;1.10;;
55082;SDS011;40978;52.850;6.506;2024-02-21T01:22:27;2.05;;;1.00;;
55082;SDS011;40978;52.850;6.506;2024-02-21T01:24:53;2.95;;;1.33;;
55082;SDS011;40978;52.850;6.506;2024-02-21T01:27:19;8.10;;;1.05;;
55082;SDS011;40978;52.850;6.506;2024-02-21T01:29:46;7.47;;;1.33;;
55082;SDS011;40978;52.850;6.506;2024-02-21T01:32:14;4.55;;;0.70;;
55082;SDS011;40978;52.850;6.506;2024-02-21T01:34:40;3.75;;;1.95;;
55082;SDS011;40978;52.850;6.506;2024-02-21T01:37:06;1.40;;;1.02;;
55082;SDS011;40978;52.850;6.506;2024-02-21T01:39:32;2.78;;;1.13;;
55082;SDS011;40978;52.850;6.506;2024-02-21T01:41:59;2.15;;;1.35;;
55082;SDS011;40978;52.850;6.506;2024-02-21T01:44:25;1.42;;;0.65;;
55082;SDS011;40978;52.850;6.506;2024-02-21T01:46:51;4.75;;;1.30;;
55082;SDS011;40978;52.850;6.506;2024-02-21T01:49:18;2.80;;;1.08;;
55082;SDS011;40978;52.850;6.506;2024-02-21T01:51:45;3.08;;;0.82;;
55082;SDS011;40978;52.850;6.506;2024-02-21T01:54:13;5.32;;;0.80;;
55082;SDS011;40978;52.850;6.506;2024-02-21T01:56:40;1.63;;;0.60;;
55082;SDS011;40978;52.850;6.506;2024-02-21T01:59:06;1.20;;;0.63;;
55082;SDS011;40978;52.850;6.506;2024-02-21T02:01:33;2.65;;;1.10;;
55082;SDS011;40978;52.850;6.506;2024-02-21T02:03:59;3.85;;;0.80;;
55082;SDS011;40978;52.850;6.506;2024-02-21T02:06:25;4.38;;;1.30;;
55082;SDS011;40978;52.850;6.506;2024-02-21T02:08:50;4.07;;;1.60;;
55082;SDS011;40978;52.850;6.506;2024-02-21T02:11:17;2.00;;;1.25;;
55082;SDS011;40978;52.850;6.506;2024-02-21T02:13:42;6.55;;;1.40;;
55082;SDS011;40978;52.850;6.506;2024-02-21T02:16:08;7.70;;;0.90;;
55082;SDS011;40978;52.850;6.506;2024-02-21T02:18:34;0.63;;;0.60;;
55082;SDS011;40978;52.850;6.506;2024-02-21T02:21:00;4.15;;;1.20;;
55082;SDS011;40978;52.850;6.506;2024-02-21T02:23:26;2.42;;;1.10;;
55082;SDS011;40978;52.850;6.506;2024-02-21T02:25:54;1.08;;;0.70;;
55082;SDS011;40978;52.850;6.506;2024-02-21T02:28:20;0.90;;;0.60;;
55082;SDS011;40978;52.850;6.506;2024-02-21T02:30:46;7.45;;;1.35;;
55082;SDS011;40978;52.850;6.506;2024-02-21T02:33:13;7.93;;;1.73;;
55082;SDS011;40978;52.850;6.506;2024-02-21T02:35:39;2.00;;;1.20;;
55082;SDS011;40978;52.850;6.506;2024-02-21T02:38:05;5.90;;;1.27;;
55082;SDS011;40978;52.850;6.506;2024-02-21T02:40:32;5.30;;;1.20;;
55082;SDS011;40978;52.850;6.506;2024-02-21T02:42:59;2.95;;;1.35;;
55082;SDS011;40978;52.850;6.506;2024-02-21T02:45:25;4.20;;;1.45;;
55082;SDS011;40978;52.850;6.506;2024-02-21T02:47:51;5.20;;;0.75;;
55082;SDS011;40978;52.850;6.506;2024-02-21T02:50:19;1.85;;;0.82;;
55082;SDS011;40978;52.850;6.506;2024-02-21T02:52:45;4.85;;;1.38;;
55082;SDS011;40978;52.850;6.506;2024-02-21T02:55:11;4.00;;;1.13;;
55082;SDS011;40978;52.850;6.506;2024-02-21T02:57:36;2.08;;;0.95;;
55082;SDS011;40978;52.850;6.506;2024-02-21T03:00:03;2.15;;;1.13;;
55082;SDS011;40978;52.850;6.506;2024-02-21T03:02:32;6.10;;;1.27;;
55082;SDS011;40978;52.850;6.506;2024-02-21T03:04:57;0.35;;;0.30;;
55082;SDS011;40978;52.850;6.506;2024-02-21T03:07:24;2.97;;;1.33;;
55082;SDS011;40978;52.850;6.506;2024-02-21T03:09:50;3.63;;;0.90;;
55082;SDS011;40978;52.850;6.506;2024-02-21T03:12:17;0.95;;;0.60;;
55082;SDS011;40978;52.850;6.506;2024-02-21T03:14:52;1.85;;;0.80;;
55082;SDS011;40978;52.850;6.506;2024-02-21T03:17:18;3.45;;;0.57;;
55082;SDS011;40978;52.850;6.506;2024-02-21T03:19:44;4.65;;;0.70;;
55082;SDS011;40978;52.850;6.506;2024-02-21T03:22:10;2.63;;;1.20;;
55082;SDS011;40978;52.850;6.506;2024-02-21T03:24:35;1.08;;;0.50;;
55082;SDS011;40978;52.850;6.506;2024-02-21T03:27:01;1.73;;;1.00;;
55082;SDS011;40978;52.850;6.506;2024-02-21T03:29:27;2.83;;;0.68;;
55082;SDS011;40978;52.850;6.506;2024-02-21T03:31:53;9.02;;;1.17;;
55082;SDS011;40978;52.850;6.506;2024-02-21T03:34:18;3.30;;;0.50;;
55082;SDS011;40978;52.850;6.506;2024-02-21T03:36:44;2.05;;;0.68;;
55082;SDS011;40978;52.850;6.506;2024-02-21T03:39:10;3.10;;;0.68;;
55082;SDS011;40978;52.850;6.506;2024-02-21T03:41:35;1.08;;;0.40;;
55082;SDS011;40978;52.850;6.506;2024-02-21T03:44:01;0.40;;;0.30;;
55082;SDS011;40978;52.850;6.506;2024-02-21T03:46:27;2.55;;;0.95;;
55082;SDS011;40978;52.850;6.506;2024-02-21T03:48:53;3.80;;;0.52;;
55082;SDS011;40978;52.850;6.506;2024-02-21T03:51:18;5.20;;;1.60;;
55082;SDS011;40978;52.850;6.506;2024-02-21T03:53:44;4.00;;;1.05;;
55082;SDS011;40978;52.850;6.506;2024-02-21T03:56:10;5.55;;;0.57;;
55082;SDS011;40978;52.850;6.506;2024-02-21T03:58:35;3.65;;;0.45;;
55082;SDS011;40978;52.850;6.506;2024-02-21T04:01:01;6.47;;;0.98;;
55082;SDS011;40978;52.850;6.506;2024-02-21T04:03:27;4.88;;;0.68;;
55082;SDS011;40978;52.850;6.506;2024-02-21T04:05:53;1.48;;;0.43;;
55082;SDS011;40978;52.850;6.506;2024-02-21T04:08:19;4.57;;;0.60;;
55082;SDS011;40978;52.850;6.506;2024-02-21T04:10:45;3.58;;;0.40;;
55082;SDS011;40978;52.850;6.506;2024-02-21T04:13:10;1.08;;;0.52;;
55082;SDS011;40978;52.850;6.506;2024-02-21T04:15:36;8.60;;;1.27;;
55082;SDS011;40978;52.850;6.506;2024-02-21T04:18:02;4.35;;;0.73;;
55082;SDS011;40978;52.850;6.506;2024-02-21T04:20:30;3.03;;;0.55;;
55082;SDS011;40978;52.850;6.506;2024-02-21T04:22:56;0.98;;;0.50;;
55082;SDS011;40978;52.850;6.506;2024-02-21T04:25:22;5.43;;;0.65;;
55082;SDS011;40978;52.850;6.506;2024-02-21T04:27:48;10.70;;;1.63;;
55082;SDS011;40978;52.850;6.506;2024-02-21T04:30:14;9.40;;;1.17;;
55082;SDS011;40978;52.850;6.506;2024-02-21T04:32:40;2.22;;;0.70;;
55082;SDS011;40978;52.850;6.506;2024-02-21T04:35:06;3.65;;;1.05;;
55082;SDS011;40978;52.850;6.506;2024-02-21T04:37:33;10.68;;;1.50;;
55082;SDS011;40978;52.850;6.506;2024-02-21T04:39:58;2.05;;;0.63;;
55082;SDS011;40978;52.850;6.506;2024-02-21T04:42:24;3.60;;;1.73;;
55082;SDS011;40978;52.850;6.506;2024-02-21T04:44:50;6.78;;;1.23;;
55082;SDS011;40978;52.850;6.506;2024-02-21T04:47:15;10.25;;;2.22;;
55082;SDS011;40978;52.850;6.506;2024-02-21T04:49:41;5.18;;;1.55;;
55082;SDS011;40978;52.850;6.506;2024-02-21T04:52:07;3.45;;;1.42;;
55082;SDS011;40978;52.850;6.506;2024-02-21T04:54:32;4.60;;;1.88;;
55082;SDS011;40978;52.850;6.506;2024-02-21T04:57:00;3.05;;;0.82;;
55082;SDS011;40978;52.850;6.506;2024-02-21T04:59:26;4.57;;;2.17;;
55082;SDS011;40978;52.850;6.506;2024-02-21T05:01:52;4.28;;;0.85;;
55082;SDS011;40978;52.850;6.506;2024-02-21T05:04:18;2.38;;;1.38;;
55082;SDS011;40978;52.850;6.506;2024-02-21T05:06:43;4.55;;;1.65;;
55082;SDS011;40978;52.850;6.506;2024-02-21T05:09:09;5.20;;;0.90;;
55082;SDS011;40978;52.850;6.506;2024-02-21T05:11:36;6.25;;;1.00;;
55082;SDS011;40978;52.850;6.506;2024-02-21T05:14:03;3.08;;;1.00;;
55082;SDS011;40978;52.850;6.506;2024-02-21T05:16:29;5.13;;;1.75;;
55082;SDS011;40978;52.850;6.506;2024-02-21T05:18:58;6.65;;;1.65;;
55082;SDS011;40978;52.850;6.506;2024-02-21T05:21:24;6.68;;;1.83;;
55082;SDS011;40978;52.850;6.506;2024-02-21T05:23:50;5.45;;;1.23;;
55082;SDS011;40978;52.850;6.506;2024-02-21T05:26:25;4.90;;;1.23;;
55082;SDS011;40978;52.850;6.506;2024-02-21T05:28:52;8.73;;;1.40;;
55082;SDS011;40978;52.850;6.506;2024-02-21T05:31:18;5.22;;;1.13;;
55082;SDS011;40978;52.850;6.506;2024-02-21T05:33:45;4.32;;;1.30;;
55082;SDS011;40978;52.850;6.506;2024-02-21T05:36:11;2.63;;;0.70;;
55082;SDS011;40978;52.850;6.506;2024-02-21T05:38:37;6.85;;;1.83;;
55082;SDS011;40978;52.850;6.506;2024-02-21T05:41:03;8.20;;;1.75;;
55082;SDS011;40978;52.850;6.506;2024-02-21T05:43:29;5.03;;;1.27;;
55082;SDS011;40978;52.850;6.506;2024-02-21T05:45:55;4.78;;;0.77;;
55082;SDS011;40978;52.850;6.506;2024-02-21T05:48:21;7.22;;;1.13;;
55082;SDS011;40978;52.850;6.506;2024-02-21T05:50:48;7.13;;;1.15;;
55082;SDS011;40978;52.850;6.506;2024-02-21T05:53:13;4.75;;;1.08;;
55082;SDS011;40978;52.850;6.506;2024-02-21T05:55:40;1.90;;;0.90;;
55082;SDS011;40978;52.850;6.506;2024-02-21T05:58:06;3.90;;;0.57;;
55082;SDS011;40978;52.850;6.506;2024-02-21T06:00:32;2.13;;;0.73;;
55082;SDS011;40978;52.850;6.506;2024-02-21T06:02:58;3.78;;;0.82;;
55082;SDS011;40978;52.850;6.506;2024-02-21T06:05:24;3.95;;;0.88;;
55082;SDS011;40978;52.850;6.506;2024-02-21T06:07:50;3.20;;;0.90;;
55082;SDS011;40978;52.850;6.506;2024-02-21T06:10:16;8.13;;;1.98;;
55082;SDS011;40978;52.850;6.506;2024-02-21T06:12:42;7.32;;;1.38;;
55082;SDS011;40978;52.850;6.506;2024-02-21T06:15:07;3.13;;;0.82;;
55082;SDS011;40978;52.850;6.506;2024-02-21T06:17:33;10.10;;;1.55;;
55082;SDS011;40978;52.850;6.506;2024-02-21T06:19:59;4.03;;;0.60;;
55082;SDS011;40978;52.850;6.506;2024-02-21T06:22:25;5.07;;;1.20;;
55082;SDS011;40978;52.850;6.506;2024-02-21T06:24:51;6.63;;;0.70;;
55082;SDS011;40978;52.850;6.506;2024-02-21T06:27:18;4.85;;;1.35;;
55082;SDS011;40978;52.850;6.506;2024-02-21T06:29:44;1.35;;;0.73;;
55082;SDS011;40978;52.850;6.506;2024-02-21T06:32:09;4.95;;;0.70;;
55082;SDS011;40978;52.850;6.506;2024-02-21T06:34:35;3.15;;;1.60;;
55082;SDS011;40978;52.850;6.506;2024-02-21T06:37:01;1.73;;;0.82;;
55082;SDS011;40978;52.850;6.506;2024-02-21T06:39:26;4.18;;;1.23;;
55082;SDS011;40978;52.850;6.506;2024-02-21T06:41:54;4.97;;;1.02;;
55082;SDS011;40978;52.850;6.506;2024-02-21T06:44:20;3.83;;;1.58;;
55082;SDS011;40978;52.850;6.506;2024-02-21T06:46:46;2.13;;;0.90;;
55082;SDS011;40978;52.850;6.506;2024-02-21T06:49:12;4.88;;;1.27;;
55082;SDS011;40978;52.850;6.506;2024-02-21T06:51:41;7.05;;;1.40;;
55082;SDS011;40978;52.850;6.506;2024-02-21T06:54:08;1.85;;;1.08;;
55082;SDS011;40978;52.850;6.506;2024-02-21T06:56:35;1.38;;;0.80;;
55082;SDS011;40978;52.850;6.506;2024-02-21T06:59:02;2.30;;;1.00;;
55082;SDS011;40978;52.850;6.506;2024-02-21T07:01:30;2.45;;;1.27;;
55082;SDS011;40978;52.850;6.506;2024-02-21T07:03:56;4.50;;;1.23;;
55082;SDS011;40978;52.850;6.506;2024-02-21T07:06:22;6.57;;;1.73;;
55082;SDS011;40978;52.850;6.506;2024-02-21T07:08:48;3.58;;;1.60;;
55082;SDS011;40978;52.850;6.506;2024-02-21T07:11:14;6.82;;;2.13;;
55082;SDS011;40978;52.850;6.506;2024-02-21T07:13:40;4.10;;;1.70;;
55082;SDS011;40978;52.850;6.506;2024-02-21T07:16:06;7.38;;;1.65;;
55082;SDS011;40978;52.850;6.506;2024-02-21T07:18:32;3.35;;;1.67;;
55082;SDS011;40978;52.850;6.506;2024-02-21T07:20:57;7.63;;;1.58;;
55082;SDS011;40978;52.850;6.506;2024-02-21T07:23:23;9.18;;;1.98;;
55082;SDS011;40978;52.850;6.506;2024-02-21T07:25:49;7.70;;;1.98;;
55082;SDS011;40978;52.850;6.506;2024-02-21T07:28:15;3.85;;;1.27;;
55082;SDS011;40978;52.850;6.506;2024-02-21T07:30:41;4.57;;;2.15;;
55082;SDS011;40978;52.850;6.506;2024-02-21T07:33:07;3.00;;;1.60;;
55082;SDS011;40978;52.850;6.506;2024-02-21T07:35:33;10.27;;;2.08;;
55082;SDS011;40978;52.850;6.506;2024-02-21T07:37:59;4.05;;;1.52;;
55082;SDS011;40978;52.850;6.506;2024-02-21T07:40:25;3.38;;;1.70;;
55082;SDS011;40978;52.850;6.506;2024-02-21T07:42:51;6.10;;;3.08;;
55082;SDS011;40978;52.850;6.506;2024-02-21T07:45:16;3.75;;;2.53;;
55082;SDS011;40978;52.850;6.506;2024-02-21T07:47:43;6.05;;;2.55;;
55082;SDS011;40978;52.850;6.506;2024-02-21T07:50:09;4.10;;;2.70;;
55082;SDS011;40978;52.850;6.506;2024-02-21T07:52:35;7.15;;;1.90;;
55082;SDS011;40978;52.850;6.506;2024-02-21T07:55:01;6.32;;;1.95;;
55082;SDS011;40978;52.850;6.506;2024-02-21T07:57:26;4.22;;;2.40;;
55082;SDS011;40978;52.850;6.506;2024-02-21T07:59:53;3.55;;;2.33;;
55082;SDS011;40978;52.850;6.506;2024-02-21T08:02:19;4.22;;;2.22;;
55082;SDS011;40978;52.850;6.506;2024-02-21T08:04:44;5.72;;;2.22;;
55082;SDS011;40978;52.850;6.506;2024-02-21T08:07:10;5.00;;;2.63;;
55082;SDS011;40978;52.850;6.506;2024-02-21T08:09:36;8.55;;;2.70;;
55082;SDS011;40978;52.850;6.506;2024-02-21T08:12:03;9.30;;;3.30;;
55082;SDS011;40978;52.850;6.506;2024-02-21T08:14:29;8.93;;;2.30;;
55082;SDS011;40978;52.850;6.506;2024-02-21T08:16:55;4.35;;;2.17;;
55082;SDS011;40978;52.850;6.506;2024-02-21T08:19:21;12.68;;;3.05;;
55082;SDS011;40978;52.850;6.506;2024-02-21T08:21:50;4.15;;;2.58;;
55082;SDS011;40978;52.850;6.506;2024-02-21T08:24:15;5.05;;;2.65;;
55082;SDS011;40978;52.850;6.506;2024-02-21T08:26:41;3.58;;;2.30;;
55082;SDS011;40978;52.850;6.506;2024-02-21T08:29:07;13.20;;;3.65;;
55082;SDS011;40978;52.850;6.506;2024-02-21T08:31:33;4.93;;;2.50;;
55082;SDS011;40978;52.850;6.506;2024-02-21T08:34:02;7.05;;;3.65;;
55082;SDS011;40978;52.850;6.506;2024-02-21T08:36:32;6.05;;;3.50;;
55082;SDS011;40978;52.850;6.506;2024-02-21T08:38:59;5.45;;;2.92;;
55082;SDS011;40978;52.850;6.506;2024-02-21T08:41:26;5.45;;;2.50;;
55082;SDS011;40978;52.850;6.506;2024-02-21T08:43:53;3.53;;;2.60;;
55082;SDS011;40978;52.850;6.506;2024-02-21T08:46:22;7.20;;;2.60;;
55082;SDS011;40978;52.850;6.506;2024-02-21T08:48:52;8.23;;;4.35;;
55082;SDS011;40978;52.850;6.506;2024-02-21T08:51:19;6.28;;;2.85;;
55082;SDS011;40978;52.850;6.506;2024-02-21T08:53:45;6.13;;;3.40;;
55082;SDS011;40978;52.850;6.506;2024-02-21T08:56:11;10.45;;;3.67;;
55082;SDS011;40978;52.850;6.506;2024-02-21T08:58:37;4.18;;;2.75;;
55082;SDS011;40978;52.850;6.506;2024-02-21T09:01:04;5.43;;;2.85;;
55082;SDS011;40978;52.850;6.506;2024-02-21T09:03:32;8.80;;;3.33;;
55082;SDS011;40978;52.850;6.506;2024-02-21T09:05:58;9.05;;;3.53;;
55082;SDS011;40978;52.850;6.506;2024-02-21T09:08:24;6.38;;;3.40;;
55082;SDS011;40978;52.850;6.506;2024-02-21T09:10:51;6.97;;;2.78;;
55082;SDS011;40978;52.850;6.506;2024-02-21T09:13:17;5.63;;;3.25;;
55082;SDS011;40978;52.850;6.506;2024-02-21T09:15:42;8.93;;;4.43;;
55082;SDS011;40978;52.850;6.506;2024-02-21T09:18:08;5.88;;;3.38;;
55082;SDS011;40978;52.850;6.506;2024-02-21T09:20:34;7.38;;;4.03;;
55082;SDS011;40978;52.850;6.506;2024-02-21T09:23:00;7.28;;;4.10;;
55082;SDS011;40978;52.850;6.506;2024-02-21T09:25:25;5.25;;;3.67;;
55082;SDS011;40978;52.850;6.506;2024-02-21T09:27:54;7.38;;;3.67;;
55082;SDS011;40978;52.850;6.506;2024-02-21T09:30:20;8.23;;;4.70;;
55082;SDS011;40978;52.850;6.506;2024-02-21T09:32:46;8.60;;;3.85;;
55082;SDS011;40978;52.850;6.506;2024-02-21T09:35:12;4.00;;;2.83;;
55082;SDS011;40978;52.850;6.506;2024-02-21T09:37:38;6.78;;;3.58;;
55082;SDS011;40978;52.850;6.506;2024-02-21T09:40:04;9.40;;;4.07;;
55082;SDS011;40978;52.850;6.506;2024-02-21T09:42:40;6.30;;;3.65;;
55082;SDS011;40978;52.850;6.506;2024-02-21T09:45:25;5.82;;;3.83;;
55082;SDS011;40978;52.850;6.506;2024-02-21T09:51:07;11.02;;;3.58;;
55082;SDS011;40978;52.850;6.506;2024-02-21T09:53:36;8.85;;;3.00;;
55082;SDS011;40978;52.850;6.506;2024-02-21T09:56:03;9.45;;;4.50;;
55082;SDS011;40978;52.850;6.506;2024-02-21T09:58:32;10.20;;;4.15;;
55082;SDS011;40978;52.850;6.506;2024-02-21T10:00:59;6.50;;;3.70;;
55082;SDS011;40978;52.850;6.506;2024-02-21T10:03:25;5.93;;;3.50;;
55082;SDS011;40978;52.850;6.506;2024-02-21T10:05:51;8.70;;;3.85;;
55082;SDS011;40978;52.850;6.506;2024-02-21T10:08:17;6.22;;;3.88;;
55082;SDS011;40978;52.850;6.506;2024-02-21T10:10:44;9.50;;;3.65;;
55082;SDS011;40978;52.850;6.506;2024-02-21T10:13:21;10.43;;;4.00;;
55082;SDS011;40978;52.850;6.506;2024-02-21T10:16:04;6.28;;;3.42;;
55082;SDS011;40978;52.850;6.506;2024-02-21T10:18:32;6.53;;;3.88;;
55082;SDS011;40978;52.850;6.506;2024-02-21T10:21:02;5.38;;;3.50;;
55082;SDS011;40978;52.850;6.506;2024-02-21T10:23:29;5.72;;;3.05;;
55082;SDS011;40978;52.850;6.506;2024-02-21T10:26:05;5.75;;;3.33;;
55082;SDS011;40978;52.850;6.506;2024-02-21T10:28:32;5.80;;;3.05;;
55082;SDS011;40978;52.850;6.506;2024-02-21T10:30:58;5.03;;;3.25;;
55082;SDS011;40978;52.850;6.506;2024-02-21T10:33:23;7.88;;;3.25;;
55082;SDS011;40978;52.850;6.506;2024-02-21T10:35:50;5.60;;;2.35;;
55082;SDS011;40978;52.850;6.506;2024-02-21T10:38:16;3.80;;;2.25;;
55082;SDS011;40978;52.850;6.506;2024-02-21T10:40:42;4.43;;;2.25;;
55082;SDS011;40978;52.850;6.506;2024-02-21T10:43:11;4.28;;;2.30;;
55082;SDS011;40978;52.850;6.506;2024-02-21T10:45:39;7.18;;;3.03;;
55082;SDS011;40978;52.850;6.506;2024-02-21T10:48:11;8.05;;;2.60;;
55082;SDS011;40978;52.850;6.506;2024-02-21T10:51:23;5.05;;;2.55;;
55082;SDS011;40978;52.850;6.506;2024-02-21T10:53:35;5.32;;;1.40;;
55082;SDS011;40978;52.850;6.506;2024-02-21T10:59:05;4.47;;;2.20;;
55082;SDS011;40978;52.850;6.506;2024-02-21T11:01:32;2.28;;;1.75;;
55082;SDS011;40978;52.850;6.506;2024-02-21T11:04:06;2.92;;;1.80;;
55082;SDS011;40978;52.850;6.506;2024-02-21T11:06:37;3.58;;;1.95;;
55082;SDS011;40978;52.850;6.506;2024-02-21T11:09:07;7.85;;;2.72;;
55082;SDS011;40978;52.850;6.506;2024-02-21T11:11:37;2.55;;;1.98;;
55082;SDS011;40978;52.850;6.506;2024-02-21T11:14:08;4.60;;;1.98;;
55082;SDS011;40978;52.850;6.506;2024-02-21T11:16:40;5.45;;;2.10;;
55082;SDS011;40978;52.850;6.506;2024-02-21T11:19:23;7.10;;;2.22;;
55082;SDS011;40978;52.850;6.506;2024-02-21T11:21:51;4.90;;;2.38;;
55082;SDS011;40978;52.850;6.506;2024-02-21T11:24:27;8.05;;;1.77;;
55082;SDS011;40978;52.850;6.506;2024-02-21T11:27:45;2.30;;;1.50;;
55082;SDS011;40978;52.850;6.506;2024-02-21T11:29:47;3.22;;;1.88;;
55082;SDS011;40978;52.850;6.506;2024-02-21T11:32:23;3.47;;;1.75;;
55082;SDS011;40978;52.850;6.506;2024-02-21T11:34:58;3.15;;;2.22;;
55082;SDS011;40978;52.850;6.506;2024-02-21T11:37:29;6.03;;;1.77;;
55082;SDS011;40978;52.850;6.506;2024-02-21T11:39:56;6.95;;;2.80;;
55082;SDS011;40978;52.850;6.506;2024-02-21T11:42:22;2.40;;;1.58;;
55082;SDS011;40978;52.850;6.506;2024-02-21T11:44:50;4.97;;;2.72;;
55082;SDS011;40978;52.850;6.506;2024-02-21T11:47:15;4.60;;;2.35;;
55082;SDS011;40978;52.850;6.506;2024-02-21T11:49:46;3.78;;;1.88;;
55082;SDS011;40978;52.850;6.506;2024-02-21T11:52:14;3.42;;;1.30;;
55082;SDS011;40978;52.850;6.506;2024-02-21T11:54:44;3.05;;;2.08;;
55082;SDS011;40978;52.850;6.506;2024-02-21T11:57:10;3.33;;;1.70;;
55082;SDS011;40978;52.850;6.506;2024-02-21T11:59:36;2.33;;;1.88;;
55082;SDS011;40978;52.850;6.506;2024-02-21T12:02:02;3.03;;;1.52;;
55082;SDS011;40978;52.850;6.506;2024-02-21T12:04:28;5.00;;;1.80;;
55082;SDS011;40978;52.850;6.506;2024-02-21T12:06:56;2.95;;;1.55;;
55082;SDS011;40978;52.850;6.506;2024-02-21T12:09:23;3.20;;;2.10;;
55082;SDS011;40978;52.850;6.506;2024-02-21T12:11:56;3.22;;;2.00;;
55082;SDS011;40978;52.850;6.506;2024-02-21T12:14:27;3.60;;;1.52;;
55082;SDS011;40978;52.850;6.506;2024-02-21T12:16:55;3.03;;;1.70;;
55082;SDS011;40978;52.850;6.506;2024-02-21T12:19:21;5.78;;;2.53;;
55082;SDS011;40978;52.850;6.506;2024-02-21T12:21:47;2.15;;;1.30;;
55082;SDS011;40978;52.850;6.506;2024-02-21T12:26:42;2.42;;;1.55;;
55082;SDS011;40978;52.850;6.506;2024-02-21T12:29:08;3.05;;;1.70;;
55082;SDS011;40978;52.850;6.506;2024-02-21T12:31:38;2.38;;;1.40;;
55082;SDS011;40978;52.850;6.506;2024-02-21T12:34:04;3.13;;;1.92;;
55082;SDS011;40978;52.850;6.506;2024-02-21T12:36:31;3.90;;;2.08;;
55082;SDS011;40978;52.850;6.506;2024-02-21T12:38:57;4.35;;;1.25;;
55082;SDS011;40978;52.850;6.506;2024-02-21T12:41:23;3.20;;;1.80;;
55082;SDS011;40978;52.850;6.506;2024-02-21T12:43:50;8.63;;;2.00;;
55082;SDS011;40978;52.850;6.506;2024-02-21T12:46:16;1.90;;;1.38;;
55082;SDS011;40978;52.850;6.506;2024-02-21T12:48:42;1.88;;;1.65;;
55082;SDS011;40978;52.850;6.506;2024-02-21T12:51:07;1.73;;;1.10;;
55082;SDS011;40978;52.850;6.506;2024-02-21T12:53:33;5.28;;;1.33;;
55082;SDS011;40978;52.850;6.506;2024-02-21T12:55:59;2.17;;;1.40;;
55082;SDS011;40978;52.850;6.506;2024-02-21T12:58:25;1.75;;;1.35;;
55082;SDS011;40978;52.850;6.506;2024-02-21T13:00:51;3.92;;;1.45;;
55082;SDS011;40978;52.850;6.506;2024-02-21T13:03:16;1.88;;;0.90;;
55082;SDS011;40978;52.850;6.506;2024-02-21T13:05:42;2.05;;;1.38;;
55082;SDS011;40978;52.850;6.506;2024-02-21T13:08:11;2.17;;;1.20;;
55082;SDS011;40978;52.850;6.506;2024-02-21T13:10:37;2.47;;;1.17;;
55082;SDS011;40978;52.850;6.506;2024-02-21T13:13:03;2.38;;;1.65;;
55082;SDS011;40978;52.850;6.506;2024-02-21T13:15:29;4.05;;;1.23;;
55082;SDS011;40978;52.850;6.506;2024-02-21T13:17:58;1.25;;;1.08;;
55082;SDS011;40978;52.850;6.506;2024-02-21T13:20:24;1.27;;;0.85;;
55082;SDS011;40978;52.850;6.506;2024-02-21T13:22:50;1.98;;;1.13;;
55082;SDS011;40978;52.850;6.506;2024-02-21T13:25:16;1.00;;;0.82;;
55082;SDS011;40978;52.850;6.506;2024-02-21T13:27:45;3.83;;;1.50;;
55082;SDS011;40978;52.850;6.506;2024-02-21T13:30:11;1.17;;;1.00;;
55082;SDS011;40978;52.850;6.506;2024-02-21T13:32:38;1.92;;;1.30;;
55082;SDS011;40978;52.850;6.506;2024-02-21T13:35:04;2.67;;;1.15;;
55082;SDS011;40978;52.850;6.506;2024-02-21T13:37:30;6.30;;;1.05;;
55082;SDS011;40978;52.850;6.506;2024-02-21T13:39:56;2.25;;;1.05;;
55082;SDS011;40978;52.850;6.506;2024-02-21T13:42:22;1.13;;;0.98;;
55082;SDS011;40978;52.850;6.506;2024-02-21T13:44:52;3.60;;;1.45;;
55082;SDS011;40978;52.850;6.506;2024-02-21T13:47:18;1.20;;;0.70;;
55082;SDS011;40978;52.850;6.506;2024-02-21T13:49:43;2.00;;;1.23;;
55082;SDS011;40978;52.850;6.506;2024-02-21T13:52:09;2.28;;;1.27;;
55082;SDS011;40978;52.850;6.506;2024-02-21T13:54:35;2.25;;;1.58;;
55082;SDS011;40978;52.850;6.506;2024-02-21T13:57:01;1.75;;;1.02;;
55082;SDS011;40978;52.850;6.506;2024-02-21T13:59:27;2.45;;;1.38;;
55082;SDS011;40978;52.850;6.506;2024-02-21T14:01:53;2.03;;;1.17;;
55082;SDS011;40978;52.850;6.506;2024-02-21T14:04:19;1.17;;;0.80;;
55082;SDS011;40978;52.850;6.506;2024-02-21T14:06:45;1.52;;;1.00;;
55082;SDS011;40978;52.850;6.506;2024-02-21T14:09:11;1.15;;;0.88;;
55082;SDS011;40978;52.850;6.506;2024-02-21T14:11:37;2.47;;;1.30;;
55082;SDS011;40978;52.850;6.506;2024-02-21T14:14:04;6.20;;;1.40;;
55082;SDS011;40978;52.850;6.506;2024-02-21T14:16:31;4.88;;;1.25;;
55082;SDS011;40978;52.850;6.506;2024-02-21T14:18:57;2.08;;;1.17;;
55082;SDS011;40978;52.850;6.506;2024-02-21T14:21:23;3.00;;;1.25;;
55082;SDS011;40978;52.850;6.506;2024-02-21T14:23:49;1.70;;;1.23;;
55082;SDS011;40978;52.850;6.506;2024-02-21T14:26:15;1.83;;;1.08;;
55082;SDS011;40978;52.850;6.506;2024-02-21T14:28:41;2.25;;;1.13;;
55082;SDS011;40978;52.850;6.506;2024-02-21T14:31:07;1.60;;;1.17;;
55082;SDS011;40978;52.850;6.506;2024-02-21T14:33:34;2.88;;;1.23;;
55082;SDS011;40978;52.850;6.506;2024-02-21T14:36:00;3.78;;;1.48;;
55082;SDS011;40978;52.850;6.506;2024-02-21T14:38:27;1.45;;;0.75;;
55082;SDS011;40978;52.850;6.506;2024-02-21T14:40:53;2.67;;;0.98;;
55082;SDS011;40978;52.850;6.506;2024-02-21T14:43:19;3.70;;;2.67;;
55082;SDS011;40978;52.850;6.506;2024-02-21T14:45:46;3.95;;;1.05;;
55082;SDS011;40978;52.850;6.506;2024-02-21T14:48:13;1.10;;;0.82;;
55082;SDS011;40978;52.850;6.506;2024-02-21T14:50:39;2.50;;;1.02;;
55082;SDS011;40978;52.850;6.506;2024-02-21T14:53:05;1.85;;;1.17;;
55082;SDS011;40978;52.850;6.506;2024-02-21T14:55:33;3.53;;;1.92;;